sensor_id;sensor_type;location;lat;lon;timestamp;pressure;altitude;pressure_sealevel;temperature;humidity
46876;BME280;32866;50.160;14.768;2022-07-22T00:02:12;99695.81;;;18.16;100.00
46876;BME280;32866;50.160;14.768;2022-07-22T00:04:37;99699.16;;;18.20;100.00
46876;BME280;32866;50.160;14.768;2022-07-22T00:07:03;99675.78;;;17.91;100.00
46876;BME280;32866;50.160;14.768;2022-07-22T00:09:28;99700.69;;;18.06;100.00
46876;BME280;32866;50.160;14.768;2022-07-22T00:11:54;99707.31;;;18.09;100.00
46876;BME280;32866;50.160;14.768;2022-07-22T00:14:20;99701.59;;;17.97;100.00
46876;BME280;32866;50.160;14.768;2022-07-22T00:16:45;99702.75;;;17.91;100.00
46876;BME280;32866;50.160;14.768;2022-07-22T00:19:10;99701.25;;;17.90;100.00
46876;BME280;32866;50.160;14.768;2022-07-22T00:21:36;99704.56;;;17.94;100.00
46876;BME280;32866;50.160;14.768;2022-07-22T00:24:01;99710.09;;;17.94;100.00
46876;BME280;32866;50.160;14.768;2022-07-22T00:26:27;99704.09;;;17.95;100.00
46876;BME280;32866;50.160;14.768;2022-07-22T00:28:52;99707.06;;;17.92;100.00
46876;BME280;32866;50.160;14.768;2022-07-22T00:31:18;99695.09;;;17.71;100.00
46876;BME280;32866;50.160;14.768;2022-07-22T00:33:43;99717.94;;;17.80;100.00
46876;BME280;32866;50.160;14.768;2022-07-22T00:36:08;99719.16;;;17.79;100.00
46876;BME280;32866;50.160;14.768;2022-07-22T00:38:34;99716.41;;;17.79;100.00
46876;BME280;32866;50.160;14.768;2022-07-22T00:40:59;99685.09;;;17.58;100.00
46876;BME280;32866;50.160;14.768;2022-07-22T00:43:24;99715.38;;;17.77;100.00
46876;BME280;32866;50.160;14.768;2022-07-22T00:45:50;99710.78;;;17.74;100.00
46876;BME280;32866;50.160;14.768;2022-07-22T00:48:15;99715.94;;;17.66;100.00
46876;BME280;32866;50.160;14.768;2022-07-22T00:50:41;99714.16;;;17.63;100.00
46876;BME280;32866;50.160;14.768;2022-07-22T00:53:07;99712.69;;;17.68;100.00
46876;BME280;32866;50.160;14.768;2022-07-22T00:55:34;99709.28;;;17.58;100.00
46876;BME280;32866;50.160;14.768;2022-07-22T00:58:00;99710.59;;;17.48;100.00
46876;BME280;32866;50.160;14.768;2022-07-22T01:00:26;99704.69;;;17.40;100.00
46876;BME280;32866;50.160;14.768;2022-07-22T01:02:52;99705.66;;;17.37;100.00
46876;BME280;32866;50.160;14.768;2022-07-22T01:05:17;99687.97;;;17.04;100.00
46876;BME280;32866;50.160;14.768;2022-07-22T01:07:43;99713.47;;;17.23;100.00
46876;BME280;32866;50.160;14.768;2022-07-22T01:10:09;99710.22;;;17.25;100.00
46876;BME280;32866;50.160;14.768;2022-07-22T01:12:34;99708.31;;;17.31;100.00
46876;BME280;32866;50.160;14.768;2022-07-22T01:14:59;99702.97;;;17.13;100.00
46876;BME280;32866;50.160;14.768;2022-07-22T01:17:25;99700.75;;;17.17;100.00
46876;BME280;32866;50.160;14.768;2022-07-22T01:19:50;99701.69;;;17.14;100.00
46876;BME280;32866;50.160;14.768;2022-07-22T01:22:16;99706.97;;;17.12;100.00
46876;BME280;32866;50.160;14.768;2022-07-22T01:24:41;99663.03;;;16.90;100.00
46876;BME280;32866;50.160;14.768;2022-07-22T01:27:07;99685.38;;;17.16;100.00
46876;BME280;32866;50.160;14.768;2022-07-22T01:29:32;99689.00;;;17.22;100.00
46876;BME280;32866;50.160;14.768;2022-07-22T01:31:57;99697.78;;;17.20;100.00
46876;BME280;32866;50.160;14.768;2022-07-22T01:34:23;99698.19;;;17.28;100.00
46876;BME280;32866;50.160;14.768;2022-07-22T01:36:48;99694.38;;;17.25;100.00
46876;BME280;32866;50.160;14.768;2022-07-22T01:39:14;99678.88;;;17.04;100.00
46876;BME280;32866;50.160;14.768;2022-07-22T01:41:39;99702.97;;;17.13;100.00
46876;BME280;32866;50.160;14.768;2022-07-22T01:44:05;99699.50;;;17.03;100.00
46876;BME280;32866;50.160;14.768;2022-07-22T01:46:30;99693.09;;;16.97;100.00
46876;BME280;32866;50.160;14.768;2022-07-22T01:48:55;99684.09;;;16.87;100.00
46876;BME280;32866;50.160;14.768;2022-07-22T01:51:21;99689.63;;;16.87;100.00
46876;BME280;32866;50.160;14.768;2022-07-22T01:53:46;99687.03;;;16.83;100.00
46876;BME280;32866;50.160;14.768;2022-07-22T01:56:12;99693.94;;;16.88;100.00
46876;BME280;32866;50.160;14.768;2022-07-22T01:58:37;99660.81;;;16.55;100.00
46876;BME280;32866;50.160;14.768;2022-07-22T02:01:03;99694.69;;;16.88;100.00
46876;BME280;32866;50.160;14.768;2022-07-22T02:03:28;99700.41;;;16.85;100.00
46876;BME280;32866;50.160;14.768;2022-07-22T02:05:53;99698.00;;;16.78;100.00
46876;BME280;32866;50.160;14.768;2022-07-22T02:08:19;99688.34;;;16.73;100.00
46876;BME280;32866;50.160;14.768;2022-07-22T02:10:45;99692.28;;;16.57;100.00
46876;BME280;32866;50.160;14.768;2022-07-22T02:13:10;99685.59;;;16.49;100.00
46876;BME280;32866;50.160;14.768;2022-07-22T02:15:36;99693.34;;;16.60;100.00
46876;BME280;32866;50.160;14.768;2022-07-22T02:18:17;99699.34;;;16.58;100.00
46876;BME280;32866;50.160;14.768;2022-07-22T02:20:43;99701.38;;;16.58;100.00
46876;BME280;32866;50.160;14.768;2022-07-22T02:23:09;99700.59;;;16.57;100.00
46876;BME280;32866;50.160;14.768;2022-07-22T02:25:37;99699.19;;;16.62;100.00
46876;BME280;32866;50.160;14.768;2022-07-22T02:28:02;99700.75;;;16.78;100.00
46876;BME280;32866;50.160;14.768;2022-07-22T02:30:28;99708.19;;;16.72;100.00
46876;BME280;32866;50.160;14.768;2022-07-22T02:32:53;99701.66;;;16.60;100.00
46876;BME280;32866;50.160;14.768;2022-07-22T02:35:19;99709.47;;;16.61;100.00
46876;BME280;32866;50.160;14.768;2022-07-22T02:37:44;99703.34;;;16.57;100.00
46876;BME280;32866;50.160;14.768;2022-07-22T02:40:09;99703.34;;;16.57;100.00
46876;BME280;32866;50.160;14.768;2022-07-22T02:42:35;99676.81;;;16.26;100.00
46876;BME280;32866;50.160;14.768;2022-07-22T02:45:00;99702.78;;;16.53;100.00
46876;BME280;32866;50.160;14.768;2022-07-22T02:47:26;99706.22;;;16.39;100.00
46876;BME280;32866;50.160;14.768;2022-07-22T02:49:51;99666.47;;;16.12;100.00
46876;BME280;32866;50.160;14.768;2022-07-22T02:52:16;99703.81;;;16.31;100.00
46876;BME280;32866;50.160;14.768;2022-07-22T02:54:42;99704.44;;;16.36;100.00
46876;BME280;32866;50.160;14.768;2022-07-22T02:57:07;99699.94;;;16.38;100.00
46876;BME280;32866;50.160;14.768;2022-07-22T02:59:32;99681.34;;;16.14;100.00
46876;BME280;32866;50.160;14.768;2022-07-22T03:01:58;99697.06;;;16.32;100.00
46876;BME280;32866;50.160;14.768;2022-07-22T03:04:23;99685.81;;;16.12;100.00
46876;BME280;32866;50.160;14.768;2022-07-22T03:06:49;99702.66;;;16.23;100.00
46876;BME280;32866;50.160;14.768;2022-07-22T03:09:14;99699.66;;;16.36;100.00
46876;BME280;32866;50.160;14.768;2022-07-22T03:11:39;99703.72;;;16.26;100.00
46876;BME280;32866;50.160;14.768;2022-07-22T03:14:05;99674.84;;;15.93;100.00
46876;BME280;32866;50.160;14.768;2022-07-22T03:16:30;99706.22;;;16.14;100.00
46876;BME280;32866;50.160;14.768;2022-07-22T03:18:55;99705.41;;;16.23;100.00
46876;BME280;32866;50.160;14.768;2022-07-22T03:21:21;99702.66;;;16.23;100.00
46876;BME280;32866;50.160;14.768;2022-07-22T03:23:46;99701.59;;;16.21;100.00
46876;BME280;32866;50.160;14.768;2022-07-22T03:26:11;99695.25;;;16.29;100.00
46876;BME280;32866;50.160;14.768;2022-07-22T03:28:37;99690.00;;;16.07;100.00
46876;BME280;32866;50.160;14.768;2022-07-22T03:31:02;99708.22;;;16.14;100.00
46876;BME280;32866;50.160;14.768;2022-07-22T03:33:28;99676.69;;;15.97;100.00
46876;BME280;32866;50.160;14.768;2022-07-22T03:35:53;99703.75;;;16.17;100.00
46876;BME280;32866;50.160;14.768;2022-07-22T03:38:18;99697.13;;;16.23;100.00
46876;BME280;32866;50.160;14.768;2022-07-22T03:40:44;99704.47;;;16.26;100.00
46876;BME280;32866;50.160;14.768;2022-07-22T03:43:09;99698.47;;;16.28;100.00
46876;BME280;32866;50.160;14.768;2022-07-22T03:45:34;99692.47;;;16.29;100.00
46876;BME280;32866;50.160;14.768;2022-07-22T03:47:59;99694.78;;;16.31;100.00
46876;BME280;32866;50.160;14.768;2022-07-22T03:50:25;99696.75;;;16.30;100.00
46876;BME280;32866;50.160;14.768;2022-07-22T03:52:50;99678.75;;;16.11;100.00
46876;BME280;32866;50.160;14.768;2022-07-22T03:55:15;99702.00;;;16.28;100.00
46876;BME280;32866;50.160;14.768;2022-07-22T03:57:41;99700.50;;;16.27;100.00
46876;BME280;32866;50.160;14.768;2022-07-22T04:00:06;99697.41;;;16.25;100.00
46876;BME280;32866;50.160;14.768;2022-07-22T04:02:32;99703.25;;;16.27;100.00
46876;BME280;32866;50.160;14.768;2022-07-22T04:04:57;99690.66;;;16.26;100.00
46876;BME280;32866;50.160;14.768;2022-07-22T04:07:23;99691.22;;;16.30;100.00
46876;BME280;32866;50.160;14.768;2022-07-22T04:09:48;99688.72;;;16.42;100.00
46876;BME280;32866;50.160;14.768;2022-07-22T04:12:13;99687.31;;;16.46;100.00
46876;BME280;32866;50.160;14.768;2022-07-22T04:14:38;99691.44;;;16.51;100.00
46876;BME280;32866;50.160;14.768;2022-07-22T04:17:04;99692.19;;;16.51;100.00
46876;BME280;32866;50.160;14.768;2022-07-22T04:19:29;99690.78;;;16.56;100.00
46876;BME280;32866;50.160;14.768;2022-07-22T04:21:55;99656.47;;;16.39;100.00
46876;BME280;32866;50.160;14.768;2022-07-22T04:24:20;99686.81;;;16.72;100.00
46876;BME280;32866;50.160;14.768;2022-07-22T04:26:45;99655.47;;;16.51;100.00
46876;BME280;32866;50.160;14.768;2022-07-22T04:29:10;99683.09;;;16.75;100.00
46876;BME280;32866;50.160;14.768;2022-07-22T04:31:36;99665.59;;;16.69;100.00
46876;BME280;32866;50.160;14.768;2022-07-22T04:34:01;99691.09;;;16.97;100.00
46876;BME280;32866;50.160;14.768;2022-07-22T04:36:27;99666.47;;;16.84;100.00
46876;BME280;32866;50.160;14.768;2022-07-22T04:38:52;99689.19;;;17.03;100.00
46876;BME280;32866;50.160;14.768;2022-07-22T04:41:17;99685.75;;;17.09;100.00
46876;BME280;32866;50.160;14.768;2022-07-22T04:43:43;99689.97;;;17.19;100.00
46876;BME280;32866;50.160;14.768;2022-07-22T04:46:08;99669.44;;;17.11;100.00
46876;BME280;32866;50.160;14.768;2022-07-22T04:48:34;99683.00;;;17.38;100.00
46876;BME280;32866;50.160;14.768;2022-07-22T04:51:00;99687.00;;;17.52;100.00
46876;BME280;32866;50.160;14.768;2022-07-22T04:53:26;99694.75;;;17.63;100.00
46876;BME280;32866;50.160;14.768;2022-07-22T04:55:52;99685.91;;;17.79;100.00
46876;BME280;32866;50.160;14.768;2022-07-22T04:58:18;99689.00;;;17.96;100.00
46876;BME280;32866;50.160;14.768;2022-07-22T05:00:43;99671.84;;;17.98;100.00
46876;BME280;32866;50.160;14.768;2022-07-22T05:03:08;99684.94;;;18.33;100.00
46876;BME280;32866;50.160;14.768;2022-07-22T05:05:34;99677.41;;;18.33;100.00
46876;BME280;32866;50.160;14.768;2022-07-22T05:07:59;99669.75;;;18.49;100.00
46876;BME280;32866;50.160;14.768;2022-07-22T05:10:24;99659.84;;;18.63;100.00
46876;BME280;32866;50.160;14.768;2022-07-22T05:12:50;99694.75;;;19.16;100.00
46876;BME280;32866;50.160;14.768;2022-07-22T05:15:15;99670.78;;;19.19;100.00
46876;BME280;32866;50.160;14.768;2022-07-22T05:17:40;99696.22;;;19.70;100.00
46876;BME280;32866;50.160;14.768;2022-07-22T05:20:06;99692.56;;;19.84;100.00
46876;BME280;32866;50.160;14.768;2022-07-22T05:22:32;99678.66;;;19.84;100.00
46876;BME280;32866;50.160;14.768;2022-07-22T05:24:57;99696.09;;;20.22;100.00
46876;BME280;32866;50.160;14.768;2022-07-22T05:27:23;99698.50;;;20.52;100.00
46876;BME280;32866;50.160;14.768;2022-07-22T05:29:48;99698.44;;;20.95;99.90
46876;BME280;32866;50.160;14.768;2022-07-22T05:32:14;99701.53;;;21.25;100.00
46876;BME280;32866;50.160;14.768;2022-07-22T05:34:40;99700.25;;;21.43;94.99
46876;BME280;32866;50.160;14.768;2022-07-22T05:37:05;99679.00;;;21.46;94.85
46876;BME280;32866;50.160;14.768;2022-07-22T05:39:30;99698.03;;;21.87;92.40
46876;BME280;32866;50.160;14.768;2022-07-22T05:41:56;99710.66;;;22.05;91.46
46876;BME280;32866;50.160;14.768;2022-07-22T05:44:21;99708.38;;;22.09;90.41
46876;BME280;32866;50.160;14.768;2022-07-22T05:46:46;99686.06;;;22.03;91.63
46876;BME280;32866;50.160;14.768;2022-07-22T05:49:12;99704.78;;;22.26;90.53
46876;BME280;32866;50.160;14.768;2022-07-22T05:51:37;99684.47;;;22.25;90.77
46876;BME280;32866;50.160;14.768;2022-07-22T05:54:03;99703.50;;;22.38;88.67
46876;BME280;32866;50.160;14.768;2022-07-22T05:56:29;99701.97;;;22.37;88.03
46876;BME280;32866;50.160;14.768;2022-07-22T05:58:54;99706.28;;;22.38;87.48
46876;BME280;32866;50.160;14.768;2022-07-22T06:01:21;99685.50;;;22.39;88.46
46876;BME280;32866;50.160;14.768;2022-07-22T06:03:47;99700.09;;;22.68;88.71
46876;BME280;32866;50.160;14.768;2022-07-22T06:06:12;99692.19;;;22.72;89.60
46876;BME280;32866;50.160;14.768;2022-07-22T06:08:38;99704.16;;;23.14;85.00
46876;BME280;32866;50.160;14.768;2022-07-22T06:11:03;99699.00;;;23.29;87.59
46876;BME280;32866;50.160;14.768;2022-07-22T06:13:29;99693.09;;;23.39;84.86
46876;BME280;32866;50.160;14.768;2022-07-22T06:15:54;99704.63;;;23.60;86.83
46876;BME280;32866;50.160;14.768;2022-07-22T06:18:20;99699.84;;;23.49;85.67
46876;BME280;32866;50.160;14.768;2022-07-22T06:20:45;99707.00;;;23.75;81.64
46876;BME280;32866;50.160;14.768;2022-07-22T06:23:11;99697.50;;;23.59;79.72
46876;BME280;32866;50.160;14.768;2022-07-22T06:25:36;99703.09;;;23.89;81.78
46876;BME280;32866;50.160;14.768;2022-07-22T06:28:02;99701.31;;;23.92;82.73
46876;BME280;32866;50.160;14.768;2022-07-22T06:30:30;99710.09;;;24.01;81.09
46876;BME280;32866;50.160;14.768;2022-07-22T06:32:55;99703.53;;;24.23;80.50
46876;BME280;32866;50.160;14.768;2022-07-22T06:35:21;99705.44;;;24.34;78.97
46876;BME280;32866;50.160;14.768;2022-07-22T06:37:46;99692.13;;;24.40;79.56
46876;BME280;32866;50.160;14.768;2022-07-22T06:40:12;99711.47;;;24.63;80.16
46876;BME280;32866;50.160;14.768;2022-07-22T06:42:39;99709.38;;;24.88;77.13
46876;BME280;32866;50.160;14.768;2022-07-22T06:45:05;99708.09;;;24.89;76.03
46876;BME280;32866;50.160;14.768;2022-07-22T06:47:30;99686.50;;;25.03;72.60
46876;BME280;32866;50.160;14.768;2022-07-22T06:49:57;99704.28;;;25.25;73.52
46876;BME280;32866;50.160;14.768;2022-07-22T06:52:22;99676.69;;;25.29;70.81
46876;BME280;32866;50.160;14.768;2022-07-22T06:54:48;99688.41;;;25.46;67.84
46876;BME280;32866;50.160;14.768;2022-07-22T06:57:14;99681.47;;;25.34;69.60
46876;BME280;32866;50.160;14.768;2022-07-22T06:59:39;99674.66;;;25.10;68.42
46876;BME280;32866;50.160;14.768;2022-07-22T07:02:05;99678.59;;;25.21;71.80
46876;BME280;32866;50.160;14.768;2022-07-22T07:04:30;99697.94;;;25.57;71.50
46876;BME280;32866;50.160;14.768;2022-07-22T07:06:55;99702.72;;;25.75;70.24
46876;BME280;32866;50.160;14.768;2022-07-22T07:09:21;99675.72;;;25.72;68.61
46876;BME280;32866;50.160;14.768;2022-07-22T07:11:46;99702.53;;;25.86;71.34
46876;BME280;32866;50.160;14.768;2022-07-22T07:14:12;99699.22;;;26.01;68.61
46876;BME280;32866;50.160;14.768;2022-07-22T07:16:37;99698.91;;;26.18;67.72
46876;BME280;32866;50.160;14.768;2022-07-22T07:19:03;99704.41;;;25.97;65.01
46876;BME280;32866;50.160;14.768;2022-07-22T07:21:29;99687.34;;;26.08;67.65
46876;BME280;32866;50.160;14.768;2022-07-22T07:23:54;99680.75;;;26.06;69.89
46876;BME280;32866;50.160;14.768;2022-07-22T07:26:20;99693.50;;;26.34;68.93
46876;BME280;32866;50.160;14.768;2022-07-22T07:28:45;99674.50;;;26.26;69.75
46876;BME280;32866;50.160;14.768;2022-07-22T07:31:11;99695.22;;;26.50;68.02
46876;BME280;32866;50.160;14.768;2022-07-22T07:33:37;99703.66;;;26.63;66.20
46876;BME280;32866;50.160;14.768;2022-07-22T07:36:02;99695.63;;;26.68;64.86
46876;BME280;32866;50.160;14.768;2022-07-22T07:38:28;99670.13;;;26.52;64.24
46876;BME280;32866;50.160;14.768;2022-07-22T07:40:54;99675.09;;;26.59;64.12
46876;BME280;32866;50.160;14.768;2022-07-22T07:43:20;99689.59;;;26.98;62.18
46876;BME280;32866;50.160;14.768;2022-07-22T07:45:45;99680.78;;;26.94;62.87
46876;BME280;32866;50.160;14.768;2022-07-22T07:48:11;99698.09;;;27.19;60.87
46876;BME280;32866;50.160;14.768;2022-07-22T07:50:36;99696.72;;;27.12;62.54
46876;BME280;32866;50.160;14.768;2022-07-22T07:53:02;99699.28;;;27.45;65.63
46876;BME280;32866;50.160;14.768;2022-07-22T07:55:27;99697.03;;;27.64;64.75
46876;BME280;32866;50.160;14.768;2022-07-22T07:57:53;99696.13;;;27.69;59.79
46876;BME280;32866;50.160;14.768;2022-07-22T08:00:24;99679.47;;;27.50;66.70
46876;BME280;32866;50.160;14.768;2022-07-22T08:02:53;99682.69;;;27.54;65.15
46876;BME280;32866;50.160;14.768;2022-07-22T08:05:20;99693.22;;;27.83;61.71
46876;BME280;32866;50.160;14.768;2022-07-22T08:07:47;99690.88;;;27.73;61.13
46876;BME280;32866;50.160;14.768;2022-07-22T08:10:13;99660.16;;;27.75;62.80
46876;BME280;32866;50.160;14.768;2022-07-22T08:12:39;99686.81;;;28.03;62.82
46876;BME280;32866;50.160;14.768;2022-07-22T08:15:05;99678.16;;;28.01;60.84
46876;BME280;32866;50.160;14.768;2022-07-22T08:17:31;99689.41;;;28.30;60.46
46876;BME280;32866;50.160;14.768;2022-07-22T08:19:57;99672.88;;;28.26;59.74
46876;BME280;32866;50.160;14.768;2022-07-22T08:22:23;99678.31;;;28.61;58.45
46876;BME280;32866;50.160;14.768;2022-07-22T08:24:48;99688.69;;;28.74;58.34
46876;BME280;32866;50.160;14.768;2022-07-22T08:27:14;99694.19;;;28.87;55.35
46876;BME280;32866;50.160;14.768;2022-07-22T08:29:39;99658.03;;;28.70;55.69
46876;BME280;32866;50.160;14.768;2022-07-22T08:32:05;99667.66;;;28.75;53.16
46876;BME280;32866;50.160;14.768;2022-07-22T08:34:30;99687.06;;;28.94;54.36
46876;BME280;32866;50.160;14.768;2022-07-22T08:36:56;99656.03;;;28.86;55.97
46876;BME280;32866;50.160;14.768;2022-07-22T08:39:21;99672.25;;;29.16;56.13
46876;BME280;32866;50.160;14.768;2022-07-22T08:41:47;99682.63;;;29.21;55.49
46876;BME280;32866;50.160;14.768;2022-07-22T08:44:12;99663.06;;;29.23;56.33
46876;BME280;32866;50.160;14.768;2022-07-22T08:46:38;99683.97;;;29.51;53.68
46876;BME280;32866;50.160;14.768;2022-07-22T08:49:03;99678.50;;;29.30;55.74
46876;BME280;32866;50.160;14.768;2022-07-22T08:51:29;99683.56;;;29.39;51.16
46876;BME280;32866;50.160;14.768;2022-07-22T08:53:55;99682.06;;;29.46;52.64
46876;BME280;32866;50.160;14.768;2022-07-22T08:56:20;99678.31;;;29.36;54.81
46876;BME280;32866;50.160;14.768;2022-07-22T08:58:46;99649.91;;;29.34;53.44
46876;BME280;32866;50.160;14.768;2022-07-22T09:01:14;99677.56;;;29.58;52.67
46876;BME280;32866;50.160;14.768;2022-07-22T09:03:49;99674.75;;;29.82;54.62
46876;BME280;32866;50.160;14.768;2022-07-22T09:06:23;99674.16;;;29.99;49.01
46876;BME280;32866;50.160;14.768;2022-07-22T09:08:56;99669.06;;;30.05;51.86
46876;BME280;32866;50.160;14.768;2022-07-22T09:11:24;99664.22;;;29.82;49.58
46876;BME280;32866;50.160;14.768;2022-07-22T09:13:51;99638.44;;;29.39;49.54
46876;BME280;32866;50.160;14.768;2022-07-22T09:19:09;99660.44;;;29.87;50.30
46876;BME280;32866;50.160;14.768;2022-07-22T09:21:36;99664.41;;;29.38;49.29
46876;BME280;32866;50.160;14.768;2022-07-22T09:24:03;99654.03;;;29.94;51.30
46876;BME280;32866;50.160;14.768;2022-07-22T09:26:37;99650.75;;;30.21;49.20
46876;BME280;32866;50.160;14.768;2022-07-22T09:29:04;99648.31;;;30.74;49.81
46876;BME280;32866;50.160;14.768;2022-07-22T09:31:35;99641.31;;;31.07;46.14
46876;BME280;32866;50.160;14.768;2022-07-22T09:34:02;99655.19;;;31.21;45.62
46876;BME280;32866;50.160;14.768;2022-07-22T09:36:28;99646.56;;;30.78;44.17
46876;BME280;32866;50.160;14.768;2022-07-22T09:38:54;99643.69;;;30.53;45.22
46876;BME280;32866;50.160;14.768;2022-07-22T09:41:20;99641.22;;;30.90;45.73
46876;BME280;32866;50.160;14.768;2022-07-22T09:43:46;99638.72;;;30.69;45.89
46876;BME280;32866;50.160;14.768;2022-07-22T09:46:11;99641.97;;;30.58;46.05
46876;BME280;32866;50.160;14.768;2022-07-22T09:48:37;99643.03;;;30.70;43.28
46876;BME280;32866;50.160;14.768;2022-07-22T09:51:04;99639.28;;;31.00;46.98
46876;BME280;32866;50.160;14.768;2022-07-22T09:53:30;99636.88;;;31.22;41.73
46876;BME280;32866;50.160;14.768;2022-07-22T09:55:57;99619.94;;;31.39;44.89
46876;BME280;32866;50.160;14.768;2022-07-22T09:58:25;99629.00;;;31.63;44.43
46876;BME280;32866;50.160;14.768;2022-07-22T10:00:52;99625.44;;;31.80;49.64
46876;BME280;32866;50.160;14.768;2022-07-22T10:03:23;99618.34;;;31.89;41.95
46876;BME280;32866;50.160;14.768;2022-07-22T10:05:50;99629.00;;;31.63;40.23
46876;BME280;32866;50.160;14.768;2022-07-22T10:08:16;99610.28;;;31.85;46.22
46876;BME280;32866;50.160;14.768;2022-07-22T10:10:42;99624.00;;;32.41;41.63
46876;BME280;32866;50.160;14.768;2022-07-22T10:13:08;99620.97;;;32.12;39.77
46876;BME280;32866;50.160;14.768;2022-07-22T10:15:35;99621.56;;;31.25;41.55
46876;BME280;32866;50.160;14.768;2022-07-22T10:18:03;99620.25;;;31.26;41.22
46876;BME280;32866;50.160;14.768;2022-07-22T10:20:32;99610.22;;;31.07;40.65
46876;BME280;32866;50.160;14.768;2022-07-22T10:23:00;99616.06;;;31.27;42.06
46876;BME280;32866;50.160;14.768;2022-07-22T10:25:29;99601.88;;;31.35;41.84
46876;BME280;32866;50.160;14.768;2022-07-22T10:28:03;99602.84;;;30.79;43.31
46876;BME280;32866;50.160;14.768;2022-07-22T10:33:14;99602.78;;;30.13;43.88
46876;BME280;32866;50.160;14.768;2022-07-22T10:38:09;99606.28;;;30.70;41.84
46876;BME280;32866;50.160;14.768;2022-07-22T10:40:55;99602.22;;;31.14;45.75
46876;BME280;32866;50.160;14.768;2022-07-22T10:43:32;99597.16;;;31.37;41.82
46876;BME280;32866;50.160;14.768;2022-07-22T10:46:10;99599.84;;;31.70;39.78
46876;BME280;32866;50.160;14.768;2022-07-22T10:53:52;99588.59;;;31.97;41.89
46876;BME280;32866;50.160;14.768;2022-07-22T10:59:09;99593.13;;;31.40;41.26
46876;BME280;32866;50.160;14.768;2022-07-22T11:01:43;99570.13;;;31.19;42.29
46876;BME280;32866;50.160;14.768;2022-07-22T11:04:13;99587.19;;;31.89;41.72
46876;BME280;32866;50.160;14.768;2022-07-22T11:06:39;99576.22;;;31.93;37.36
46876;BME280;32866;50.160;14.768;2022-07-22T11:09:10;99567.41;;;32.06;35.98
46876;BME280;32866;50.160;14.768;2022-07-22T11:16:46;99568.38;;;32.73;36.39
46876;BME280;32866;50.160;14.768;2022-07-22T11:19:12;99559.72;;;32.44;35.67
46876;BME280;32866;50.160;14.768;2022-07-22T11:21:37;99524.69;;;31.59;35.61
46876;BME280;32866;50.160;14.768;2022-07-22T11:24:05;99552.38;;;32.41;33.79
46876;BME280;32866;50.160;14.768;2022-07-22T11:26:44;99553.41;;;32.63;34.46
46876;BME280;32866;50.160;14.768;2022-07-22T11:29:14;99535.22;;;32.66;35.63
46876;BME280;32866;50.160;14.768;2022-07-22T11:31:40;99544.72;;;32.06;36.96
46876;BME280;32866;50.160;14.768;2022-07-22T11:34:11;99529.44;;;32.19;34.75
46876;BME280;32866;50.160;14.768;2022-07-22T11:36:39;99555.19;;;32.95;35.50
46876;BME280;32866;50.160;14.768;2022-07-22T11:39:06;99543.78;;;33.22;36.33
46876;BME280;32866;50.160;14.768;2022-07-22T11:41:32;99549.03;;;33.36;33.96
46876;BME280;32866;50.160;14.768;2022-07-22T11:43:58;99549.84;;;32.17;37.16
46876;BME280;32866;50.160;14.768;2022-07-22T11:46:25;99546.66;;;31.51;37.70
46876;BME280;32866;50.160;14.768;2022-07-22T11:48:52;99551.56;;;31.25;36.21
46876;BME280;32866;50.160;14.768;2022-07-22T11:51:18;99538.63;;;30.97;37.85
46876;BME280;32866;50.160;14.768;2022-07-22T11:53:43;99539.28;;;32.18;36.72
46876;BME280;32866;50.160;14.768;2022-07-22T11:56:10;99534.56;;;32.95;34.26
46876;BME280;32866;50.160;14.768;2022-07-22T11:58:42;99526.78;;;33.61;39.84
46876;BME280;32866;50.160;14.768;2022-07-22T12:01:09;99535.00;;;33.47;33.27
46876;BME280;32866;50.160;14.768;2022-07-22T12:03:36;99496.91;;;33.60;33.08
46876;BME280;32866;50.160;14.768;2022-07-22T12:06:04;99533.16;;;32.76;36.10
46876;BME280;32866;50.160;14.768;2022-07-22T12:08:31;99527.47;;;32.12;41.27
46876;BME280;32866;50.160;14.768;2022-07-22T12:10:57;99525.31;;;32.57;39.56
46876;BME280;32866;50.160;14.768;2022-07-22T12:13:28;99525.66;;;32.34;37.94
46876;BME280;32866;50.160;14.768;2022-07-22T12:15:54;99512.78;;;32.23;35.75
46876;BME280;32866;50.160;14.768;2022-07-22T12:18:25;99513.31;;;32.76;34.83
46876;BME280;32866;50.160;14.768;2022-07-22T12:20:52;99520.63;;;33.26;35.71
46876;BME280;32866;50.160;14.768;2022-07-22T12:23:20;99520.16;;;32.73;34.53
46876;BME280;32866;50.160;14.768;2022-07-22T12:25:56;99513.63;;;33.17;37.67
46876;BME280;32866;50.160;14.768;2022-07-22T12:28:23;99507.69;;;33.72;36.61
46876;BME280;32866;50.160;14.768;2022-07-22T12:30:50;99509.41;;;34.16;35.21
46876;BME280;32866;50.160;14.768;2022-07-22T12:33:16;99508.53;;;34.23;33.71
46876;BME280;32866;50.160;14.768;2022-07-22T12:35:43;99509.91;;;34.53;34.56
46876;BME280;32866;50.160;14.768;2022-07-22T12:38:09;99504.63;;;34.69;35.79
46876;BME280;32866;50.160;14.768;2022-07-22T12:40:35;99511.09;;;35.23;33.07
46876;BME280;32866;50.160;14.768;2022-07-22T12:45:29;99509.13;;;34.94;31.15
46876;BME280;32866;50.160;14.768;2022-07-22T12:50:34;99491.81;;;33.59;34.30
46876;BME280;32866;50.160;14.768;2022-07-22T12:53:06;99495.81;;;34.24;34.90
46876;BME280;32866;50.160;14.768;2022-07-22T12:55:34;99494.66;;;34.49;32.54
46876;BME280;32866;50.160;14.768;2022-07-22T12:58:00;99498.56;;;34.85;34.96
46876;BME280;32866;50.160;14.768;2022-07-22T13:00:29;99493.91;;;35.11;33.16
46876;BME280;32866;50.160;14.768;2022-07-22T13:02:55;99478.59;;;34.63;33.36
46876;BME280;32866;50.160;14.768;2022-07-22T13:05:22;99492.19;;;34.74;31.45
46876;BME280;32866;50.160;14.768;2022-07-22T13:07:48;99476.78;;;34.68;31.18